Time;durP1;ratioP1;P1;durP2;ratioP2;P2;SDS_P1;SDS_P2;PMS_P1;PMS_P2;Temp;Humidity;BMP_temperature;BMP_pressure;BME280_temperature;BME280_humidity;BME280_pressure;Samples;Min_cycle;Max_cycle;Signal;HPM_P1;HPM_P2
2023/10/26 00:01:25;0.00;0.00;0.62;0.00;0.00;0.62;2.87;1.97;;;24.30;29.50;;;;;;2260214;61;20356;-61
2023/10/26 00:04:10;0.00;0.00;0.62;0.00;0.00;0.62;2.60;1.70;;;24.30;29.50;;;;;;2260405;61;20801;-67
2023/10/26 00:06:55;0.00;0.00;0.62;0.00;0.00;0.62;2.63;1.87;;;24.30;29.50;;;;;;2260453;61;21024;-58
2023/10/26 00:09:40;0.00;0.00;0.62;0.00;0.00;0.62;3.23;1.70;;;24.30;29.50;;;;;;2259666;61;20372;-62
2023/10/26 00:12:24;0.00;0.00;0.62;0.00;0.00;0.62;2.50;1.73;;;24.30;29.50;;;;;;2259855;61;20365;-63
2023/10/26 00:15:10;0.00;0.00;0.62;0.00;0.00;0.62;2.03;1.37;;;24.30;29.50;;;;;;2260006;61;20365;-62
2023/10/26 00:17:55;0.00;0.00;0.62;0.00;0.00;0.62;2.30;1.70;;;24.30;29.50;;;;;;2259787;61;20393;-63
2023/10/26 00:20:41;0.00;0.00;0.62;0.00;0.00;0.62;3.67;2.13;;;24.30;30.00;;;;;;2260348;61;20376;-57
2023/10/26 00:23:26;0.00;0.00;0.62;0.00;0.00;0.62;2.80;1.70;;;24.30;29.50;;;;;;2260349;61;20600;-58
2023/10/26 00:26:10;0.00;0.00;0.62;0.00;0.00;0.62;2.50;1.73;;;24.30;29.60;;;;;;2259837;61;20373;-61
2023/10/26 00:28:57;0.00;0.00;0.62;0.00;0.00;0.62;2.50;1.80;;;24.30;29.50;;;;;;2259632;61;20451;-61
2023/10/26 00:31:42;0.00;0.00;0.62;0.00;0.00;0.62;2.33;1.63;;;24.30;29.50;;;;;;2260155;61;20361;-61
2023/10/26 00:34:26;0.00;0.00;0.62;0.00;0.00;0.62;2.20;1.73;;;24.30;29.50;;;;;;2259977;61;20809;-60
2023/10/26 00:37:12;0.00;0.00;0.62;0.00;0.00;0.62;3.33;2.13;;;24.30;29.60;;;;;;2259753;61;20389;-60
2023/10/26 00:39:58;0.00;0.00;0.62;0.00;0.00;0.62;2.60;1.80;;;24.20;29.50;;;;;;2259418;61;20448;-62
2023/10/26 00:42:43;0.00;0.00;0.62;0.00;0.00;0.62;3.60;2.17;;;24.30;29.60;;;;;;2260235;61;20381;-62
2023/10/26 00:45:30;0.00;0.00;0.62;0.00;0.00;0.62;2.40;1.73;;;24.30;29.60;;;;;;2259845;61;20897;-60
2023/10/26 00:48:15;0.00;0.00;0.62;0.00;0.00;0.62;2.70;2.00;;;24.20;29.50;;;;;;2260015;61;20358;-62
2023/10/26 00:51:00;0.00;0.00;0.62;0.00;0.00;0.62;2.33;1.53;;;24.20;29.50;;;;;;2260118;61;20872;-62
2023/10/26 00:53:48;0.00;0.00;0.62;0.00;0.00;0.62;2.30;1.80;;;24.20;29.50;;;;;;2260201;61;20468;-63
2023/10/26 00:56:33;0.00;0.00;0.62;0.00;0.00;0.62;2.90;2.17;;;24.20;29.50;;;;;;2257868;61;20405;-62
2023/10/26 00:59:18;0.00;0.00;0.62;0.00;0.00;0.62;2.20;1.50;;;24.20;29.50;;;;;;2255997;61;20466;-64
2023/10/26 01:02:04;0.00;0.00;0.62;0.00;0.00;0.62;2.30;1.70;;;24.20;29.60;;;;;;2255480;61;20381;-63
2023/10/26 01:04:49;0.00;0.00;0.62;0.00;0.00;0.62;2.60;1.50;;;24.20;29.50;;;;;;2252532;61;20416;-62
2023/10/26 01:07:33;0.00;0.00;0.62;0.00;0.00;0.62;2.77;1.93;;;24.20;29.50;;;;;;2680356;45;20447;-61
2023/10/26 01:10:20;0.00;0.00;0.62;0.00;0.00;0.62;2.20;1.80;;;24.20;29.50;;;;;;2259520;61;20365;-61
2023/10/26 01:13:04;0.00;0.00;0.62;0.00;0.00;0.62;2.70;2.17;;;24.20;29.60;;;;;;2260004;61;20385;-61
2023/10/26 01:15:49;0.00;0.00;0.62;0.00;0.00;0.62;2.57;2.00;;;24.20;29.50;;;;;;2260063;61;20479;-59
2023/10/26 01:18:34;0.00;0.00;0.62;0.00;0.00;0.62;2.50;1.63;;;24.20;29.50;;;;;;2259685;61;20478;-61
2023/10/26 01:21:18;0.00;0.00;0.62;0.00;0.00;0.62;2.63;1.90;;;24.20;29.60;;;;;;2260302;61;20368;-64
2023/10/26 01:24:05;0.00;0.00;0.62;0.00;0.00;0.62;2.00;1.30;;;24.20;29.50;;;;;;2259846;61;20841;-62
2023/10/26 01:26:50;0.00;0.00;0.62;0.00;0.00;0.62;2.67;1.80;;;24.20;29.60;;;;;;2260137;61;20385;-62
2023/10/26 01:29:34;0.00;0.00;0.62;0.00;0.00;0.62;2.23;1.60;;;24.20;29.50;;;;;;2259745;61;20606;-60
2023/10/26 01:32:20;0.00;0.00;0.62;0.00;0.00;0.62;2.97;2.10;;;24.20;29.50;;;;;;2259744;61;20361;-62
2023/10/26 01:35:06;0.00;0.00;0.62;0.00;0.00;0.62;2.40;1.60;;;24.20;29.50;;;;;;2260188;61;20510;-61
2023/10/26 01:37:50;0.00;0.00;0.62;0.00;0.00;0.62;2.33;1.40;;;24.20;29.50;;;;;;2259989;61;20431;-63
2023/10/26 01:40:36;0.00;0.00;0.62;0.00;0.00;0.62;2.30;1.70;;;24.20;29.50;;;;;;2260836;61;20427;-60
2023/10/26 01:43:21;0.00;0.00;0.62;0.00;0.00;0.62;2.33;1.40;;;24.20;29.50;;;;;;2260787;61;20916;-62
2023/10/26 01:46:05;0.00;0.00;0.62;0.00;0.00;0.62;2.03;1.50;;;24.20;29.60;;;;;;2257854;61;20457;-60
2023/10/26 01:48:51;0.00;0.00;0.62;0.00;0.00;0.62;2.43;1.70;;;24.20;29.50;;;;;;2255450;61;20420;-59
2023/10/26 01:51:36;0.00;0.00;0.62;0.00;0.00;0.62;2.20;1.60;;;24.20;29.50;;;;;;2257042;61;20362;-59
2023/10/26 01:54:20;0.00;0.00;0.62;0.00;0.00;0.62;2.50;1.70;;;24.20;29.50;;;;;;2256344;61;20384;-61
2023/10/26 01:57:06;0.00;0.00;0.62;0.00;0.00;0.62;2.10;1.37;;;24.20;29.50;;;;;;2256250;61;20794;-62
2023/10/26 01:59:54;0.00;0.00;0.62;0.00;0.00;0.62;2.30;1.40;;;24.20;29.50;;;;;;2255846;61;21026;-61
2023/10/26 02:02:40;0.00;0.00;0.62;0.00;0.00;0.62;2.30;1.57;;;24.20;29.50;;;;;;2256590;61;20432;-62
2023/10/26 02:05:25;0.00;0.00;0.62;0.00;0.00;0.62;2.50;1.50;;;24.20;29.50;;;;;;2256228;61;20394;-61
2023/10/26 02:08:10;0.00;0.00;0.62;0.00;0.00;0.62;2.37;1.60;;;24.20;29.50;;;;;;2255916;61;20365;-62
2023/10/26 02:10:55;0.00;0.00;0.62;0.00;0.00;0.62;2.40;1.50;;;24.20;29.50;;;;;;2260716;61;20432;-61
2023/10/26 02:13:41;0.00;0.00;0.62;0.00;0.00;0.62;2.43;1.47;;;24.20;29.50;;;;;;2260726;61;20385;-59
2023/10/26 02:16:25;0.00;0.00;0.62;0.00;0.00;0.62;1.80;1.20;;;24.20;29.50;;;;;;2260167;61;20369;-61
2023/10/26 02:19:10;0.00;0.00;0.62;0.00;0.00;0.62;2.23;1.80;;;24.20;29.50;;;;;;2260310;61;20492;-59
2023/10/26 02:21:54;0.00;0.00;0.62;0.00;0.00;0.62;2.60;1.83;;;24.20;29.40;;;;;;2260195;61;20368;-63
2023/10/26 02:24:40;0.00;0.00;0.62;0.00;0.00;0.62;3.03;1.90;;;24.20;29.40;;;;;;2260563;61;20986;-63
2023/10/26 02:27:25;0.00;0.00;0.62;0.00;0.00;0.62;2.67;1.60;;;24.20;29.40;;;;;;2260752;61;20416;-61
2023/10/26 02:30:12;0.00;0.00;0.62;0.00;0.00;0.62;2.57;1.70;;;24.30;29.50;;;;;;2259426;61;20365;-62
2023/10/26 02:32:56;0.00;0.00;0.62;0.00;0.00;0.62;2.50;1.50;;;24.20;29.40;;;;;;2260343;61;20420;-59
2023/10/26 02:35:41;0.00;0.00;0.62;0.00;0.00;0.62;1.83;1.27;;;24.20;29.40;;;;;;2260160;61;20416;-62
2023/10/26 02:38:26;0.00;0.00;0.62;0.00;0.00;0.62;2.33;1.50;;;24.30;29.50;;;;;;2259996;61;20976;-62
2023/10/26 02:41:11;0.00;0.00;0.62;0.00;0.00;0.62;1.90;1.10;;;24.30;29.40;;;;;;2260548;61;20426;-58
2023/10/26 02:43:55;0.00;0.00;0.62;0.00;0.00;0.62;1.87;1.30;;;24.20;29.40;;;;;;2256381;61;20390;-58
2023/10/26 02:46:41;0.00;0.00;0.62;0.00;0.00;0.62;1.90;1.40;;;24.20;29.40;;;;;;2256635;61;20872;-67
2023/10/26 02:49:26;0.00;0.00;0.62;0.00;0.00;0.62;2.00;1.30;;;24.20;29.40;;;;;;2256120;61;20442;-59
2023/10/26 02:52:10;0.00;0.00;0.62;0.00;0.00;0.62;1.70;1.07;;;24.20;29.40;;;;;;2256104;61;20871;-61
2023/10/26 02:54:55;0.00;0.00;0.62;0.00;0.00;0.62;2.10;1.60;;;24.20;29.40;;;;;;2256827;61;20460;-62
2023/10/26 02:57:39;0.00;0.00;0.62;0.00;0.00;0.62;2.00;1.30;;;24.20;29.40;;;;;;2256424;61;20405;-60
2023/10/26 03:00:24;0.00;0.00;0.62;0.00;0.00;0.62;1.80;1.30;;;24.20;29.40;;;;;;2256619;61;20906;-58
2023/10/26 03:03:10;0.00;0.00;0.62;0.00;0.00;0.62;2.30;1.33;;;24.20;29.40;;;;;;2255946;61;20401;-56
2023/10/26 03:05:58;0.00;0.00;0.62;0.00;0.00;0.62;1.93;1.33;;;24.20;29.40;;;;;;2256047;61;20374;-62
2023/10/26 03:08:43;0.00;0.00;0.62;0.00;0.00;0.62;1.77;1.20;;;24.20;29.40;;;;;;2256787;61;20449;-62
2023/10/26 03:11:28;0.00;0.00;0.62;0.00;0.00;0.62;2.53;1.40;;;24.20;29.30;;;;;;2260145;61;20392;-60
2023/10/26 03:14:12;0.00;0.00;0.62;0.00;0.00;0.62;1.60;1.23;;;24.20;29.40;;;;;;2259876;61;20388;-57
2023/10/26 03:16:57;0.00;0.00;0.62;0.00;0.00;0.62;1.90;1.23;;;24.20;29.40;;;;;;2260666;61;20369;-61
2023/10/26 03:19:43;0.00;0.00;0.62;0.00;0.00;0.62;2.50;1.57;;;24.20;29.40;;;;;;2260127;61;20416;-59
2023/10/26 03:22:27;0.00;0.00;0.62;0.00;0.00;0.62;1.97;1.20;;;24.20;29.40;;;;;;2259999;61;20372;-61
2023/10/26 03:25:13;0.00;0.00;0.62;0.00;0.00;0.62;1.87;1.20;;;24.20;29.40;;;;;;2260476;61;20361;-60
2023/10/26 03:27:59;0.00;0.00;0.62;0.00;0.00;0.62;1.70;1.20;;;24.20;29.40;;;;;;2260102;61;20369;-62
2023/10/26 03:30:44;0.00;0.00;0.62;0.00;0.00;0.62;1.97;1.20;;;24.20;29.40;;;;;;2260536;61;20388;-62
2023/10/26 03:33:28;0.00;0.00;0.62;0.00;0.00;0.62;2.30;1.50;;;24.20;29.40;;;;;;2260518;61;20435;-62
2023/10/26 03:36:15;0.00;0.00;0.62;0.00;0.00;0.62;1.53;1.00;;;24.20;29.40;;;;;;2260518;61;20365;-60
2023/10/26 03:39:00;0.00;0.00;0.62;0.00;0.00;0.62;2.07;1.40;;;24.20;29.50;;;;;;2259685;61;20644;-62
2023/10/26 03:41:44;0.00;0.00;0.62;0.00;0.00;0.62;2.00;1.10;;;24.20;29.40;;;;;;2260411;61;20948;-62
2023/10/26 03:44:29;0.00;0.00;0.62;0.00;0.00;0.62;2.00;1.23;;;24.20;29.50;;;;;;2260445;61;20847;-64
2023/10/26 03:47:14;0.00;0.00;0.62;0.00;0.00;0.62;1.87;1.20;;;24.10;29.40;;;;;;2260325;61;20357;-60
2023/10/26 03:50:00;0.00;0.00;0.62;0.00;0.00;0.62;2.00;1.30;;;24.20;29.50;;;;;;2259773;61;20504;-63
2023/10/26 03:52:46;0.00;0.00;0.62;0.00;0.00;0.62;1.90;1.23;;;24.20;29.50;;;;;;2280543;40;21095;-63
2023/10/26 03:55:32;0.00;0.00;0.62;0.00;0.00;0.62;1.60;1.10;;;24.10;29.50;;;;;;2262232;61;20495;-60
2023/10/26 03:58:17;0.00;0.00;0.62;0.00;0.00;0.62;1.80;1.10;;;24.10;29.50;;;;;;2259274;61;20424;-58
2023/10/26 04:01:02;0.00;0.00;0.62;0.00;0.00;0.62;1.87;1.33;;;24.10;29.50;;;;;;2260306;61;20364;-59
2023/10/26 04:03:47;0.00;0.00;0.62;0.00;0.00;0.62;1.70;1.20;;;24.10;29.50;;;;;;2259992;61;20953;-60
2023/10/26 04:06:31;0.00;0.00;0.62;0.00;0.00;0.62;1.90;1.23;;;24.10;29.50;;;;;;2260288;61;20360;-57
2023/10/26 04:09:16;0.00;0.00;0.62;0.00;0.00;0.62;2.33;1.30;;;24.10;29.50;;;;;;2259959;61;20393;-59
2023/10/26 04:12:02;0.00;0.00;0.62;0.00;0.00;0.62;2.03;1.30;;;24.10;29.50;;;;;;2257291;61;20365;-61
2023/10/26 04:14:47;0.00;0.00;0.62;0.00;0.00;0.62;1.60;1.23;;;24.10;29.50;;;;;;2260340;61;20372;-61
2023/10/26 04:17:32;0.00;0.00;0.62;0.00;0.00;0.62;2.40;1.53;;;24.10;29.50;;;;;;2260353;61;20415;-63
2023/10/26 04:20:16;0.00;0.00;0.62;0.00;0.00;0.62;1.80;1.40;;;24.10;29.50;;;;;;2260167;61;20408;-59
2023/10/26 04:23:01;0.00;0.00;0.62;0.00;0.00;0.62;2.20;1.40;;;24.10;29.50;;;;;;2260339;61;20735;-61
2023/10/26 04:25:48;0.00;0.00;0.62;0.00;0.00;0.62;1.87;1.07;;;24.10;29.50;;;;;;2260240;61;20404;-61
2023/10/26 04:28:34;0.00;0.00;0.62;0.00;0.00;0.62;2.30;1.53;;;24.10;29.50;;;;;;2259902;61;20496;-62
2023/10/26 04:31:19;0.00;0.00;0.62;0.00;0.00;0.62;2.50;1.90;;;24.10;29.50;;;;;;2260372;61;20369;-62
2023/10/26 04:34:03;0.00;0.00;0.62;0.00;0.00;0.62;1.80;1.10;;;24.10;29.50;;;;;;2260271;61;20441;-62
2023/10/26 04:36:48;0.00;0.00;0.62;0.00;0.00;0.62;2.60;1.65;;;24.10;29.50;;;;;;2260081;61;20368;-62
2023/10/26 04:39:33;0.00;0.00;0.62;0.00;0.00;0.62;2.33;1.63;;;24.10;29.50;;;;;;2259909;61;20370;-59
2023/10/26 04:42:18;0.00;0.00;0.62;0.00;0.00;0.62;2.40;1.47;;;24.10;29.50;;;;;;2260282;61;20356;-61
2023/10/26 04:45:05;0.00;0.00;0.62;0.00;0.00;0.62;2.63;1.60;;;24.10;29.50;;;;;;2260145;61;20360;-60
2023/10/26 04:47:49;0.00;0.00;0.62;0.00;0.00;0.62;2.53;1.90;;;24.10;29.50;;;;;;2260032;61;20380;-61
2023/10/26 04:50:34;0.00;0.00;0.62;0.00;0.00;0.62;2.67;1.80;;;24.10;29.50;;;;;;2260303;61;20364;-59
2023/10/26 04:53:18;0.00;0.00;0.62;0.00;0.00;0.62;2.50;1.63;;;24.00;29.40;;;;;;2260032;61;20464;-66
2023/10/26 04:56:04;0.00;0.00;0.62;0.00;0.00;0.62;4.37;2.20;;;24.10;29.50;;;;;;2260068;61;20477;-60
2023/10/26 04:58:49;0.00;0.00;0.62;0.00;0.00;0.62;2.70;2.13;;;24.10;29.50;;;;;;2259733;61;20388;-60
2023/10/26 05:01:35;0.00;0.00;0.62;0.00;0.00;0.62;3.23;2.50;;;24.00;29.40;;;;;;2260240;61;20469;-62
2023/10/26 05:04:19;0.00;0.00;0.62;0.00;0.00;0.62;3.50;2.80;;;24.00;29.40;;;;;;2259982;61;20440;-60
2023/10/26 05:07:04;0.00;0.00;0.62;0.00;0.00;0.62;4.07;2.70;;;24.00;29.40;;;;;;2260306;61;20411;-61
2023/10/26 05:09:49;0.00;0.00;0.62;0.00;0.00;0.62;5.00;3.00;;;24.00;29.40;;;;;;2256739;61;20370;-59
2023/10/26 05:12:33;0.00;0.00;0.62;0.00;0.00;0.62;4.00;2.80;;;24.00;29.40;;;;;;2256531;61;20461;-59
2023/10/26 05:15:18;0.00;0.00;0.62;0.00;0.00;0.62;3.93;2.90;;;24.00;29.40;;;;;;2256885;61;20365;-60
2023/10/26 05:18:05;0.00;0.00;0.62;0.00;0.00;0.62;3.53;2.77;;;24.00;29.40;;;;;;2256489;61;20474;-61
2023/10/26 05:20:49;0.00;0.00;0.62;0.00;0.00;0.62;4.77;3.40;;;24.00;29.40;;;;;;2256685;61;20388;-61
2023/10/26 05:23:34;0.00;0.00;0.62;0.00;0.00;0.62;3.83;3.10;;;24.00;29.40;;;;;;2253801;61;20956;-56
2023/10/26 05:26:19;0.00;0.00;0.62;0.00;0.00;0.62;3.80;3.00;;;24.00;29.40;;;;;;2256955;61;20358;-60
2023/10/26 05:29:04;0.00;0.00;0.62;0.00;0.00;0.62;4.80;3.50;;;24.00;29.40;;;;;;2256509;61;20416;-60
2023/10/26 05:31:48;0.00;0.00;0.62;0.00;0.00;0.62;4.33;3.50;;;24.00;29.90;;;;;;2256748;61;20368;-60
2023/10/26 05:34:34;0.00;0.00;0.62;0.00;0.00;0.62;4.40;3.67;;;24.00;29.90;;;;;;2256649;61;20910;-60
2023/10/26 05:37:19;0.00;0.00;0.62;0.00;0.00;0.62;5.67;3.97;;;24.00;29.40;;;;;;2256816;61;20390;-65
2023/10/26 05:40:06;0.00;0.00;0.62;0.00;0.00;0.62;5.50;3.87;;;24.00;29.40;;;;;;2256566;61;20409;-65
2023/10/26 05:42:51;0.00;0.00;0.62;0.00;0.00;0.62;5.10;3.80;;;24.00;29.40;;;;;;2256582;61;20381;-62
2023/10/26 05:45:39;0.00;0.00;0.62;0.00;0.00;0.62;6.40;4.90;;;24.00;29.40;;;;;;2257113;61;20435;-60
2023/10/26 05:48:24;0.00;0.00;0.62;0.00;0.00;0.62;4.97;4.03;;;24.00;29.40;;;;;;2256346;61;20373;-62
2023/10/26 05:51:10;0.00;0.00;0.62;0.00;0.00;0.62;6.40;4.53;;;24.00;29.40;;;;;;2256768;61;20367;-60
2023/10/26 05:53:54;0.00;0.00;0.62;0.00;0.00;0.62;5.07;4.10;;;24.00;29.40;;;;;;2256640;61;20385;-60
2023/10/26 05:56:39;0.00;0.00;0.62;0.00;0.00;0.62;5.27;4.27;;;24.00;29.40;;;;;;2256611;61;20369;-58
2023/10/26 05:59:23;0.00;0.00;0.62;0.00;0.00;0.62;4.87;4.10;;;24.00;29.40;;;;;;2256297;61;20794;-62
2023/10/26 06:02:08;0.00;0.00;0.62;0.00;0.00;0.62;6.00;4.23;;;24.00;29.40;;;;;;2256771;61;20412;-62
2023/10/26 06:04:53;0.00;0.00;0.62;0.00;0.00;0.62;5.53;4.40;;;24.00;29.40;;;;;;2256558;61;20917;-61
2023/10/26 06:07:39;0.00;0.00;0.62;0.00;0.00;0.62;6.10;5.00;;;24.00;29.40;;;;;;2256937;61;20442;-61
2023/10/26 06:10:23;0.00;0.00;0.62;0.00;0.00;0.62;4.87;4.20;;;24.00;29.40;;;;;;2260724;61;20434;-61
2023/10/26 06:13:08;0.00;0.00;0.62;0.00;0.00;0.62;5.53;4.63;;;24.00;29.40;;;;;;2260413;61;20381;-60
2023/10/26 06:15:53;0.00;0.00;0.62;0.00;0.00;0.62;7.23;4.30;;;24.00;29.40;;;;;;2260716;61;20369;-58
2023/10/26 06:18:38;0.00;0.00;0.62;0.00;0.00;0.62;5.30;4.53;;;24.00;29.40;;;;;;2256872;61;20389;-58
2023/10/26 06:21:22;0.00;0.00;0.62;0.00;0.00;0.62;5.57;4.57;;;24.00;29.40;;;;;;2260557;61;20373;-58
2023/10/26 06:24:09;0.00;0.00;0.62;0.00;0.00;0.62;5.43;4.37;;;24.00;29.40;;;;;;2260391;61;20411;-58
2023/10/26 06:26:54;0.00;0.00;0.62;0.00;0.00;0.62;6.70;4.90;;;24.00;29.40;;;;;;2257188;61;20369;-57
2023/10/26 06:29:40;0.00;0.00;0.62;0.00;0.00;0.62;6.10;4.73;;;24.00;29.40;;;;;;2257116;61;20400;-57
2023/10/26 06:32:24;0.00;0.00;0.62;0.00;0.00;0.62;5.13;4.20;;;24.00;29.40;;;;;;2257494;61;20365;-60
2023/10/26 06:35:10;0.00;0.00;0.62;0.00;0.00;0.62;5.47;4.33;;;24.00;29.40;;;;;;2257352;61;20411;-60
2023/10/26 06:37:55;0.00;0.00;0.62;0.00;0.00;0.62;5.67;4.50;;;24.00;29.40;;;;;;2256979;61;20420;-62
2023/10/26 06:40:40;0.00;0.00;0.62;0.00;0.00;0.62;5.30;4.27;;;24.00;29.40;;;;;;2260642;61;21008;-62
2023/10/26 06:43:25;0.00;0.00;0.62;0.00;0.00;0.62;7.63;4.90;;;24.00;29.40;;;;;;2260397;61;20384;-57
2023/10/26 06:46:10;0.00;0.00;0.62;0.00;0.00;0.62;6.40;5.10;;;24.00;29.40;;;;;;2260680;61;20373;-62
2023/10/26 06:48:55;0.00;0.00;0.62;0.00;0.00;0.62;5.90;4.23;;;24.00;29.40;;;;;;2260259;61;20411;-58
2023/10/26 06:51:40;0.00;0.00;0.62;0.00;0.00;0.62;5.03;4.10;;;24.00;29.40;;;;;;2260798;61;20822;-62
2023/10/26 06:54:25;0.00;0.00;0.62;0.00;0.00;0.62;5.83;5.00;;;23.90;29.30;;;;;;2257184;61;20416;-60
2023/10/26 06:57:11;0.00;0.00;0.62;0.00;0.00;0.62;6.00;4.70;;;23.90;29.30;;;;;;2260439;61;20369;-58
2023/10/26 06:59:55;0.00;0.00;0.62;0.00;0.00;0.62;7.37;5.77;;;24.00;29.40;;;;;;2260421;61;20385;-60
2023/10/26 07:02:40;0.00;0.00;0.62;0.00;0.00;0.62;6.13;4.80;;;23.90;29.40;;;;;;2257243;61;20439;-59
2023/10/26 07:05:26;0.00;0.00;0.62;0.00;0.00;0.62;6.30;5.10;;;23.90;29.30;;;;;;2260527;61;20369;-61
2023/10/26 07:08:11;0.00;0.00;0.62;0.00;0.00;0.62;7.20;5.70;;;23.90;29.40;;;;;;2259989;61;20937;-61
2023/10/26 07:10:55;0.00;0.00;0.62;0.00;0.00;0.62;6.20;5.30;;;23.90;29.40;;;;;;2256307;61;20424;-62
2023/10/26 07:13:41;0.00;0.00;0.62;0.00;0.00;0.62;8.30;5.77;;;23.90;29.40;;;;;;2253264;61;20930;-64
2023/10/26 07:16:26;0.00;0.00;0.62;0.00;0.00;0.62;6.90;5.63;;;23.90;29.30;;;;;;2256661;61;20374;-59
2023/10/26 07:19:10;0.00;0.00;0.62;0.00;0.00;0.62;6.73;5.43;;;23.90;29.30;;;;;;2255983;61;20426;-60
2023/10/26 07:21:55;0.00;0.00;0.62;0.00;0.00;0.62;7.57;5.97;;;23.90;29.30;;;;;;2256709;61;20509;-59
2023/10/26 07:24:39;0.00;0.00;0.62;0.00;0.00;0.62;7.93;6.20;;;23.90;29.30;;;;;;2256631;61;20381;-59
2023/10/26 07:27:25;0.00;0.00;0.62;0.00;0.00;0.62;7.87;6.43;;;23.90;29.30;;;;;;2253348;61;20362;-67
2023/10/26 07:30:12;0.00;0.00;0.62;0.00;0.00;0.62;9.30;6.97;;;23.90;29.30;;;;;;2256072;61;20416;-59
2023/10/26 07:32:56;0.00;0.00;0.62;0.00;0.00;0.62;8.40;6.70;;;23.90;29.30;;;;;;2253154;61;20782;-58
2023/10/26 07:35:50;0.00;0.00;0.62;0.00;0.00;0.62;7.53;6.17;;;23.90;29.30;;;;;;2256411;61;20413;-62
2023/10/26 07:38:35;0.00;0.00;0.62;0.00;0.00;0.62;8.57;6.60;;;23.90;29.30;;;;;;2255837;61;20468;-64
2023/10/26 07:41:24;0.00;0.00;0.62;0.00;0.00;0.62;7.50;6.20;;;23.90;29.30;;;;;;2256372;61;20819;-62
2023/10/26 07:44:09;0.00;0.00;0.62;0.00;0.00;0.62;7.00;5.53;;;23.90;29.30;;;;;;2256582;61;20441;-59
2023/10/26 07:46:55;0.00;0.00;0.62;0.00;0.00;0.62;6.90;5.50;;;23.90;29.40;;;;;;2256084;61;20770;-63
2023/10/26 07:49:40;0.00;0.00;0.62;0.00;0.00;0.62;7.17;5.90;;;23.90;29.30;;;;;;2256022;61;20365;-60
2023/10/26 07:52:24;0.00;0.00;0.62;0.00;0.00;0.62;7.40;6.07;;;23.90;29.30;;;;;;2256540;61;20401;-59
2023/10/26 07:55:09;0.00;0.00;0.62;0.00;0.00;0.62;6.60;5.90;;;23.90;29.30;;;;;;2256033;61;20509;-62
2023/10/26 07:57:54;0.00;0.00;0.62;0.00;0.00;0.62;7.60;6.03;;;23.90;29.30;;;;;;2256117;61;20393;-62
2023/10/26 08:00:39;0.00;0.00;0.62;0.00;0.00;0.62;7.17;6.07;;;23.90;29.30;;;;;;2256558;61;20461;-60
2023/10/26 08:03:25;0.00;0.00;0.62;0.00;0.00;0.62;7.17;5.93;;;23.90;29.40;;;;;;2256402;61;20938;-60
2023/10/26 08:06:10;0.00;0.00;0.62;0.00;0.00;0.62;6.73;5.63;;;23.90;29.30;;;;;;2253293;61;20874;-61
2023/10/26 08:08:56;0.00;0.00;0.62;0.00;0.00;0.62;6.77;5.23;;;23.90;29.40;;;;;;2256186;61;20817;-61
2023/10/26 08:11:41;0.00;0.00;0.62;0.00;0.00;0.62;6.67;5.40;;;23.90;29.30;;;;;;2256538;61;20362;-58
2023/10/26 08:14:29;0.00;0.00;0.62;0.00;0.00;0.62;6.10;5.30;;;23.90;29.40;;;;;;2256510;61;20428;-60
2023/10/26 08:17:15;0.00;0.00;0.62;0.00;0.00;0.62;6.57;5.10;;;23.90;29.30;;;;;;2256138;61;20385;-59
2023/10/26 08:20:04;0.00;0.00;0.62;0.00;0.00;0.62;6.87;5.47;;;23.90;29.30;;;;;;2256071;61;20790;-60
2023/10/26 08:22:49;0.00;0.00;0.62;0.00;0.00;0.62;7.40;5.60;;;23.90;29.30;;;;;;2256436;61;20444;-60
2023/10/26 08:25:36;0.00;0.00;0.62;0.00;0.00;0.62;6.73;5.53;;;23.90;29.40;;;;;;2256101;61;20365;-60
2023/10/26 08:28:20;0.00;0.00;0.62;0.00;0.00;0.62;7.07;6.00;;;23.90;29.40;;;;;;2252857;61;20357;-60
2023/10/26 08:31:06;0.00;0.00;0.62;0.00;0.00;0.62;6.70;5.67;;;23.90;29.30;;;;;;2256624;61;20366;-60
2023/10/26 08:33:50;0.00;0.00;0.62;0.00;0.00;0.62;6.87;5.27;;;23.90;29.30;;;;;;2256324;61;20428;-60
2023/10/26 08:36:37;0.00;0.00;0.62;0.00;0.00;0.62;5.80;5.07;;;23.90;29.30;;;;;;2256251;61;20366;-60
2023/10/26 08:39:21;0.00;0.00;0.62;0.00;0.00;0.62;7.43;5.67;;;23.90;29.30;;;;;;2252386;61;20398;-63
2023/10/26 08:42:08;0.00;0.00;0.62;0.00;0.00;0.62;6.40;5.67;;;23.90;29.30;;;;;;2256510;61;20835;-62
2023/10/26 08:44:55;0.00;0.00;0.62;0.00;0.00;0.62;7.07;5.00;;;23.90;29.30;;;;;;2257181;61;20365;-62
2023/10/26 08:47:41;0.00;0.00;0.62;0.00;0.00;0.62;6.37;5.60;;;23.90;29.30;;;;;;2260128;61;20357;-67
2023/10/26 08:50:26;0.00;0.00;0.62;0.00;0.00;0.62;7.00;6.07;;;23.90;29.30;;;;;;2260405;61;20396;-59
2023/10/26 08:53:12;0.00;0.00;0.62;0.00;0.00;0.62;7.20;5.10;;;23.90;29.40;;;;;;2257089;61;20389;-59
2023/10/26 08:55:59;0.00;0.00;0.62;0.00;0.00;0.62;6.37;4.73;;;23.90;29.40;;;;;;2256963;61;20377;-62
2023/10/26 08:58:44;0.00;0.00;0.62;0.00;0.00;0.62;6.57;5.60;;;23.90;29.30;;;;;;2259837;61;20396;-62
2023/10/26 09:01:29;0.00;0.00;0.62;0.00;0.00;0.62;6.33;5.50;;;23.90;29.90;;;;;;2260209;61;20445;-62
2023/10/26 09:04:14;0.00;0.00;0.62;0.00;0.00;0.62;7.00;5.50;;;23.90;29.40;;;;;;2260347;61;20424;-61
2023/10/26 09:06:58;0.00;0.00;0.62;0.00;0.00;0.62;5.40;4.80;;;23.90;29.40;;;;;;2260128;61;20365;-61
2023/10/26 09:09:44;0.00;0.00;0.62;0.00;0.00;0.62;6.77;5.57;;;23.90;29.40;;;;;;2256753;61;20899;-61
2023/10/26 09:12:29;0.00;0.00;0.62;0.00;0.00;0.62;6.33;5.50;;;23.90;29.40;;;;;;2256205;61;20416;-57
2023/10/26 09:15:14;0.00;0.00;0.62;0.00;0.00;0.62;7.27;5.60;;;23.90;29.40;;;;;;2256255;61;20450;-62
2023/10/26 09:18:08;0.00;0.00;0.62;0.00;0.00;0.62;6.90;5.83;;;23.90;29.40;;;;;;2255544;61;20386;-64
2023/10/26 09:21:05;0.00;0.00;0.62;0.00;0.00;0.62;5.90;5.00;;;23.90;29.40;;;;;;2256138;61;20394;-62
2023/10/26 09:23:49;0.00;0.00;0.62;0.00;0.00;0.62;6.07;5.30;;;23.90;29.40;;;;;;2252811;61;20382;-59
2023/10/26 09:26:40;0.00;0.00;0.62;0.00;0.00;0.62;5.77;4.80;;;23.90;29.40;;;;;;2256283;61;20413;-62
2023/10/26 09:29:36;0.00;0.00;0.62;0.00;0.00;0.62;7.40;6.00;;;23.90;29.40;;;;;;2252822;61;20948;-58
2023/10/26 09:32:31;0.00;0.00;0.62;0.00;0.00;0.62;6.60;5.73;;;23.90;29.40;;;;;;2256188;61;20442;-59
2023/10/26 09:35:26;0.00;0.00;0.62;0.00;0.00;0.62;6.93;5.93;;;23.90;29.50;;;;;;2256058;61;20500;-62
2023/10/26 09:38:10;0.00;0.00;0.62;0.00;0.00;0.62;6.13;5.10;;;23.90;29.50;;;;;;2255652;61;20382;-62
2023/10/26 09:40:54;0.00;0.00;0.62;0.00;0.00;0.62;7.43;5.87;;;23.90;29.40;;;;;;2256125;61;20365;-60
2023/10/26 09:43:41;0.00;0.00;0.62;0.00;0.00;0.62;7.07;5.60;;;23.90;29.40;;;;;;2252866;61;20413;-58
2023/10/26 09:46:26;0.00;0.00;0.62;0.00;0.00;0.62;6.50;5.37;;;23.90;29.40;;;;;;2256099;61;20370;-61
2023/10/26 09:49:11;0.00;0.00;0.62;0.00;0.00;0.62;6.77;5.87;;;23.90;29.50;;;;;;2255775;61;20362;-62
2023/10/26 09:51:56;0.00;0.00;0.62;0.00;0.00;0.62;6.03;5.00;;;23.90;29.50;;;;;;2256094;61;20964;-62
2023/10/26 09:54:40;0.00;0.00;0.62;0.00;0.00;0.62;6.27;5.40;;;23.90;29.50;;;;;;2255889;61;20933;-61
2023/10/26 09:57:30;0.00;0.00;0.62;0.00;0.00;0.62;7.00;5.27;;;23.90;29.50;;;;;;2256231;61;20428;-58
2023/10/26 10:00:17;0.00;0.00;0.62;0.00;0.00;0.62;6.13;5.53;;;23.90;29.50;;;;;;2256550;61;20397;-61
2023/10/26 10:03:09;0.00;0.00;0.62;0.00;0.00;0.62;5.90;5.30;;;23.90;30.00;;;;;;2256901;61;20401;-60
2023/10/26 10:05:53;0.00;0.00;0.62;0.00;0.00;0.62;7.07;5.50;;;23.90;29.50;;;;;;2256911;61;20428;-61
2023/10/26 10:09:00;0.00;0.00;0.62;0.00;0.00;0.62;7.00;5.83;;;23.90;29.50;;;;;;2256203;61;20416;-60
2023/10/26 10:11:46;0.00;0.00;0.62;0.00;0.00;0.62;6.53;5.10;;;23.90;29.50;;;;;;2256712;61;20357;-62
2023/10/26 10:15:01;0.00;0.00;0.62;0.00;0.00;0.62;6.13;5.53;;;23.90;29.50;;;;;;2256545;61;20445;-61
2023/10/26 10:18:14;0.00;0.00;0.62;0.00;0.00;0.62;5.80;4.80;;;23.90;29.50;;;;;;2256755;61;20381;-62
2023/10/26 10:20:58;0.00;0.00;0.62;0.00;0.00;0.62;6.80;5.63;;;23.90;29.50;;;;;;2256769;61;20370;-62
2023/10/26 10:23:45;0.00;0.00;0.62;0.00;0.00;0.62;6.30;5.50;;;23.90;29.50;;;;;;2256607;61;20985;-59
2023/10/26 10:27:06;0.00;0.00;0.62;0.00;0.00;0.62;6.43;5.00;;;23.90;29.50;;;;;;2256713;61;20436;-61
2023/10/26 10:29:54;0.00;0.00;0.62;0.00;0.00;0.62;6.57;5.27;;;23.80;29.50;;;;;;2256389;61;20432;-62
2023/10/26 10:32:50;0.00;0.00;0.62;0.00;0.00;0.62;6.43;5.77;;;23.90;29.50;;;;;;2253339;61;20420;-61
2023/10/26 10:35:43;0.00;0.00;0.62;0.00;0.00;0.62;7.30;5.90;;;23.90;29.60;;;;;;2256559;61;20366;-60
2023/10/26 10:38:29;0.00;0.00;0.62;0.00;0.00;0.62;7.13;5.60;;;23.80;29.50;;;;;;2256030;61;20428;-60
2023/10/26 10:41:15;0.00;0.00;0.62;0.00;0.00;0.62;5.97;5.33;;;23.90;29.50;;;;;;2253501;61;20417;-62
2023/10/26 10:44:01;0.00;0.00;0.62;0.00;0.00;0.62;7.10;5.70;;;23.90;29.60;;;;;;2256596;61;20472;-62
2023/10/26 10:46:48;0.00;0.00;0.62;0.00;0.00;0.62;7.00;5.90;;;23.90;29.60;;;;;;2253415;61;20366;-60
2023/10/26 10:49:33;0.00;0.00;0.62;0.00;0.00;0.62;6.47;5.27;;;23.80;29.50;;;;;;2256413;61;20416;-60
2023/10/26 10:52:19;0.00;0.00;0.62;0.00;0.00;0.62;5.30;4.80;;;23.80;29.50;;;;;;2256440;61;20497;-63
2023/10/26 10:55:07;0.00;0.00;0.62;0.00;0.00;0.62;6.03;5.17;;;23.90;29.50;;;;;;2256650;61;20957;-59